Time;durP1;ratioP1;P1;durP2;ratioP2;P2;SDS_P1;SDS_P2;PMS_P1;PMS_P2;Temp;Humidity;BMP_temperature;BMP_pressure;BME280_temperature;BME280_humidity;BME280_pressure;Samples;Min_cycle;Max_cycle;Signal;HPM_P1;HPM_P2
2021/04/25 00:01:56;;;;;;;10.40;5.40;;;8.70;61.50;;;;;;6201416;28;20507;-77
2021/04/25 00:04:57;;;;;;;6.70;4.32;;;8.70;61.70;;;;;;6201605;28;20069;-77
2021/04/25 00:07:59;;;;;;;6.72;5.05;;;8.60;62.00;;;;;;6201715;28;20134;-77
2021/04/25 00:11:01;;;;;;;13.07;4.75;;;8.50;62.30;;;;;;6201299;28;20082;-77
2021/04/25 00:14:03;;;;;;;5.07;3.97;;;8.40;62.70;;;;;;6200983;28;20050;-77
2021/04/25 00:17:05;;;;;;;7.57;4.75;;;8.30;63.40;;;;;;6201334;28;20080;-77
2021/04/25 00:20:09;;;;;;;7.03;3.88;;;8.20;64.00;;;;;;6201068;28;20101;-77
2021/04/25 00:23:10;;;;;;;6.97;5.07;;;8.00;64.60;;;;;;6211642;28;20046;-77
2021/04/25 00:26:12;;;;;;;5.53;4.22;;;7.80;65.70;;;;;;6241838;28;20491;-77
2021/04/25 00:29:14;;;;;;;6.18;3.65;;;7.70;65.70;;;;;;6249488;28;20080;-76
2021/04/25 00:32:15;;;;;;;8.25;6.07;;;7.60;66.10;;;;;;6249832;28;20119;-77
2021/04/25 00:35:18;;;;;;;6.93;4.93;;;7.50;66.50;;;;;;6242278;28;20058;-77
2021/04/25 00:38:19;;;;;;;12.05;4.38;;;7.50;66.80;;;;;;6225110;28;20085;-77
2021/04/25 00:41:20;;;;;;;7.50;4.63;;;7.40;67.20;;;;;;6224464;28;20156;-76
2021/04/25 00:44:23;;;;;;;5.28;4.55;;;7.40;67.40;;;;;;6224547;28;20054;-77
2021/04/25 00:47:24;;;;;;;9.35;6.05;;;7.30;67.60;;;;;;6225587;28;20137;-77
2021/04/25 00:50:27;;;;;;;6.63;4.82;;;7.30;67.70;;;;;;6224423;28;20070;-77
2021/04/25 00:53:29;;;;;;;6.45;4.90;;;7.20;67.90;;;;;;6224384;28;20049;-77
2021/04/25 00:56:33;;;;;;;8.82;4.65;;;7.20;68.40;;;;;;6224159;28;20054;-77
2021/04/25 00:59:35;;;;;;;6.50;4.82;;;7.10;68.60;;;;;;6224172;28;20085;-77
2021/04/25 01:02:37;;;;;;;10.40;4.35;;;7.00;68.90;;;;;;6224346;28;20416;-76
2021/04/25 01:05:39;;;;;;;6.03;4.55;;;6.90;69.10;;;;;;6224229;28;20559;-77
2021/04/25 01:08:40;;;;;;;4.93;4.10;;;6.90;69.40;;;;;;6223683;28;20129;-77
2021/04/25 01:11:42;;;;;;;7.22;5.03;;;6.80;69.70;;;;;;6223718;28;20492;-77
2021/04/25 01:14:44;;;;;;;8.85;6.43;;;6.80;70.00;;;;;;6224406;28;20137;-77
2021/04/25 01:17:47;;;;;;;7.38;4.75;;;6.90;70.50;;;;;;6224008;28;20073;-76
2021/04/25 01:20:49;;;;;;;5.90;5.13;;;7.00;70.50;;;;;;6223354;28;20500;-76
2021/04/25 01:23:51;;;;;;;7.97;5.35;;;7.00;70.40;;;;;;6223878;28;20124;-77
2021/04/25 01:26:52;;;;;;;14.35;5.03;;;7.00;70.50;;;;;;6224127;28;20523;-75
2021/04/25 01:29:54;;;;;;;6.47;5.18;;;7.00;70.50;;;;;;6223460;28;20144;-77
2021/04/25 01:32:55;;;;;;;10.65;6.25;;;7.00;70.80;;;;;;6223708;28;20140;-77
2021/04/25 01:35:57;;;;;;;8.90;5.43;;;6.90;70.80;;;;;;6223350;28;20498;-77
2021/04/25 01:38:59;;;;;;;9.32;5.95;;;6.90;70.90;;;;;;6223444;28;20396;-77
2021/04/25 01:42:00;;;;;;;7.05;5.32;;;6.80;71.20;;;;;;6223185;28;20045;-77
2021/04/25 01:45:02;;;;;;;7.72;5.47;;;6.60;71.60;;;;;;6223460;28;20128;-77
2021/04/25 01:48:08;;;;;;;9.13;5.72;;;6.50;72.00;;;;;;6223089;28;20415;-77
2021/04/25 01:51:10;;;;;;;7.07;5.22;;;6.40;72.50;;;;;;6223515;28;20111;-77
2021/04/25 01:54:12;;;;;;;10.80;5.43;;;6.40;72.70;;;;;;6222711;28;20480;-76
2021/04/25 01:57:14;;;;;;;8.50;7.32;;;6.30;73.00;;;;;;6223030;28;20069;-76
2021/04/25 02:00:17;;;;;;;9.13;5.90;;;6.40;73.30;;;;;;6223111;28;20069;-77
2021/04/25 02:03:19;;;;;;;7.38;5.55;;;6.40;73.40;;;;;;6223370;28;20478;-76
2021/04/25 02:06:20;;;;;;;10.45;5.70;;;6.40;73.40;;;;;;6222552;28;20591;-76
2021/04/25 02:09:22;;;;;;;7.97;5.97;;;6.50;73.50;;;;;;6221890;28;20046;-76
2021/04/25 02:12:23;;;;;;;10.05;5.90;;;6.50;73.50;;;;;;6224326;28;20042;-76
2021/04/25 02:15:27;;;;;;;8.00;5.13;;;6.50;73.40;;;;;;6237912;28;20077;-76
2021/04/25 02:18:29;;;;;;;8.77;6.25;;;6.50;73.60;;;;;;6222823;28;20581;-77
2021/04/25 02:21:30;;;;;;;12.27;5.32;;;6.50;73.80;;;;;;6222409;28;20073;-76
2021/04/25 02:24:32;;;;;;;12.48;9.95;;;6.40;73.90;;;;;;6222850;28;20109;-76
2021/04/25 02:27:34;;;;;;;6.13;5.45;;;6.30;74.30;;;;;;6222636;28;20089;-76
2021/04/25 02:30:37;;;;;;;12.05;5.10;;;6.40;74.40;;;;;;6223103;28;20089;-77
2021/04/25 02:33:38;;;;;;;10.77;5.80;;;6.30;74.40;;;;;;6222048;28;20482;-77
2021/04/25 02:36:40;;;;;;;12.45;6.03;;;6.30;74.70;;;;;;6222428;28;20526;-77
2021/04/25 02:39:42;;;;;;;7.93;5.30;;;6.30;75.70;;;;;;6222004;28;20081;-77
2021/04/25 02:42:44;;;;;;;5.88;5.22;;;6.30;75.10;;;;;;6222410;28;20077;-77
2021/04/25 02:45:45;;;;;;;7.93;5.60;;;6.20;74.90;;;;;;6227925;28;20109;-78
2021/04/25 02:48:46;;;;;;;8.77;6.25;;;6.20;75.30;;;;;;6242472;28;20073;-77
2021/04/25 02:51:48;;;;;;;10.10;7.25;;;6.10;75.80;;;;;;6234194;28;20065;-78
2021/04/25 02:54:50;;;;;;;14.32;5.70;;;6.10;75.90;;;;;;6232694;28;20053;-78
2021/04/25 02:57:51;;;;;;;6.15;5.45;;;6.10;75.90;;;;;;6229731;28;20049;-77
2021/04/25 03:00:53;;;;;;;6.72;6.07;;;6.10;76.10;;;;;;6230820;28;20070;-78
2021/04/25 03:03:54;;;;;;;8.02;5.78;;;6.00;75.90;;;;;;6234464;28;20069;-77
2021/04/25 03:06:55;;;;;;;9.20;6.18;;;6.00;76.30;;;;;;6233959;28;20050;-78
2021/04/25 03:09:57;;;;;;;9.27;6.00;;;6.00;76.40;;;;;;6234777;28;20076;-78
2021/04/25 03:12:59;;;;;;;12.55;6.20;;;6.00;76.60;;;;;;6232580;28;20050;-78
2021/04/25 03:16:00;;;;;;;10.50;6.13;;;6.00;76.80;;;;;;6233379;28;20061;-78
2021/04/25 03:19:02;;;;;;;9.60;6.80;;;6.00;77.30;;;;;;6234171;28;20049;-77
2021/04/25 03:22:03;;;;;;;7.63;5.57;;;6.00;77.20;;;;;;6236250;28;20072;-78
2021/04/25 03:25:08;;;;;;;9.90;7.28;;;6.00;76.80;;;;;;6238447;28;20062;-78
2021/04/25 03:28:10;;;;;;;7.07;6.38;;;6.00;76.90;;;;;;6238127;28;20054;-78
2021/04/25 03:31:11;;;;;;;10.57;5.95;;;5.90;77.20;;;;;;6238347;28;20077;-78
2021/04/25 03:34:12;;;;;;;13.15;6.93;;;5.80;77.50;;;;;;6238563;28;20049;-77
2021/04/25 03:37:14;;;;;;;11.32;6.80;;;5.70;77.80;;;;;;6239726;28;20061;-78
2021/04/25 03:40:18;;;;;;;8.82;5.63;;;5.70;78.20;;;;;;6237892;28;20066;-78
2021/04/25 03:43:20;;;;;;;7.25;5.90;;;5.60;78.30;;;;;;6238715;28;20100;-78
2021/04/25 03:46:21;;;;;;;10.73;5.75;;;5.60;78.60;;;;;;6242340;28;20437;-78
2021/04/25 03:49:23;;;;;;;8.98;5.60;;;5.50;79.00;;;;;;6240462;28;20080;-79
2021/04/25 03:52:24;;;;;;;8.57;6.07;;;5.50;79.10;;;;;;6240413;28;20133;-77
2021/04/25 03:55:26;;;;;;;10.43;6.65;;;5.50;79.00;;;;;;6240626;28;20070;-78
2021/04/25 03:58:28;;;;;;;6.95;5.72;;;5.50;79.00;;;;;;6240422;28;20130;-78
2021/04/25 04:01:29;;;;;;;10.70;6.38;;;5.40;79.20;;;;;;6240324;28;20077;-78
2021/04/25 04:04:30;;;;;;;10.30;5.95;;;5.30;79.40;;;;;;6239954;28;20049;-78
2021/04/25 04:07:32;;;;;;;9.68;5.20;;;5.30;79.70;;;;;;6239203;28;20054;-78
2021/04/25 04:10:34;;;;;;;7.28;5.15;;;5.20;79.70;;;;;;6239450;28;20050;-77
2021/04/25 04:13:35;;;;;;;6.65;5.65;;;5.20;80.00;;;;;;6240103;28;20093;-77
2021/04/25 04:16:37;;;;;;;9.50;6.40;;;5.20;80.00;;;;;;6240818;28;20050;-79
2021/04/25 04:19:38;;;;;;;7.75;5.13;;;5.20;80.20;;;;;;6240432;28;20077;-78
2021/04/25 04:22:39;;;;;;;10.32;7.75;;;5.20;81.00;;;;;;6241809;28;20535;-78
2021/04/25 04:25:42;;;;;;;9.55;7.25;;;5.20;80.20;;;;;;6241698;28;20065;-78
2021/04/25 04:28:43;;;;;;;9.38;5.53;;;5.20;80.30;;;;;;6240833;28;20507;-79
2021/04/25 04:31:44;;;;;;;9.23;5.68;;;5.20;80.30;;;;;;6241474;28;20049;-77
2021/04/25 04:34:46;;;;;;;11.25;6.57;;;5.10;80.20;;;;;;6242622;28;20046;-79
2021/04/25 04:37:47;;;;;;;8.55;6.30;;;5.10;80.20;;;;;;6242102;28;20042;-79
2021/04/25 04:40:49;;;;;;;9.15;5.97;;;5.10;80.30;;;;;;6240376;28;20053;-78
2021/04/25 04:43:51;;;;;;;7.32;5.90;;;5.10;80.50;;;;;;6240413;28;20037;-79
2021/04/25 04:46:52;;;;;;;11.32;6.70;;;5.10;80.50;;;;;;6241737;28;20080;-79
2021/04/25 04:49:54;;;;;;;12.88;8.80;;;5.20;80.60;;;;;;6237772;28;20045;-77
2021/04/25 04:52:55;;;;;;;11.48;9.38;;;5.20;81.00;;;;;;6240064;28;20046;-78
2021/04/25 04:55:57;;;;;;;12.18;6.93;;;5.40;80.90;;;;;;6239627;28;20042;-78
2021/04/25 04:58:59;;;;;;;15.95;9.27;;;5.50;80.90;;;;;;6237199;28;20536;-78
2021/04/25 05:02:00;;;;;;;11.05;6.90;;;5.70;80.00;;;;;;6237566;28;20054;-78
2021/04/25 05:05:01;;;;;;;16.60;9.02;;;5.80;79.50;;;;;;6237868;28;20042;-78
2021/04/25 05:08:03;;;;;;;12.40;8.90;;;6.00;79.30;;;;;;6237830;28;20053;-79
2021/04/25 05:11:05;;;;;;;14.13;7.75;;;6.10;78.80;;;;;;6236702;28;20104;-78
2021/04/25 05:14:06;;;;;;;16.30;8.07;;;6.30;78.30;;;;;;6240062;28;20077;-79
2021/04/25 05:17:08;;;;;;;11.75;7.68;;;6.50;78.00;;;;;;6239046;28;20054;-78
2021/04/25 05:20:11;;;;;;;17.50;8.43;;;6.70;77.30;;;;;;6237432;28;20046;-78
2021/04/25 05:23:12;;;;;;;9.55;6.97;;;6.90;76.90;;;;;;6236375;28;20496;-77
2021/04/25 05:26:14;;;;;;;11.15;7.00;;;7.10;76.20;;;;;;6237645;28;20042;-78
2021/04/25 05:29:15;;;;;;;14.00;8.75;;;7.30;75.40;;;;;;6239155;28;20208;-79
2021/04/25 05:32:17;;;;;;;11.68;7.38;;;7.50;74.70;;;;;;6239112;28;20061;-79
2021/04/25 05:35:18;;;;;;;10.20;7.82;;;7.70;74.10;;;;;;6239226;28;20084;-78
2021/04/25 05:38:19;;;;;;;7.65;6.57;;;8.00;73.30;;;;;;6237428;28;20042;-78
2021/04/25 05:41:22;;;;;;;14.90;8.80;;;8.20;72.20;;;;;;6235308;28;20077;-78
2021/04/25 05:44:23;;;;;;;8.05;6.35;;;8.40;71.70;;;;;;6237592;28;20045;-79
2021/04/25 05:47:24;;;;;;;10.52;7.85;;;8.80;70.20;;;;;;6237553;28;20058;-79
2021/04/25 05:50:28;;;;;;;16.55;8.90;;;9.10;68.90;;;;;;6237567;28;20119;-80
2021/04/25 05:53:29;;;;;;;14.88;8.18;;;9.30;67.70;;;;;;6238522;28;20110;-78
2021/04/25 05:56:31;;;;;;;14.90;8.57;;;9.50;67.20;;;;;;6236714;28;20603;-80
2021/04/25 05:59:33;;;;;;;11.15;7.93;;;9.80;65.50;;;;;;6234593;28;20499;-79
2021/04/25 06:02:35;;;;;;;14.68;7.25;;;9.90;65.20;;;;;;6240163;28;20050;-77
2021/04/25 06:05:36;;;;;;;10.73;7.30;;;10.00;64.40;;;;;;6213186;28;20038;-78
2021/04/25 06:08:37;;;;;;;13.95;7.65;;;10.20;64.00;;;;;;6235029;28;20045;-77
2021/04/25 06:11:40;;;;;;;13.25;7.10;;;10.40;63.30;;;;;;6213059;28;20081;-78
2021/04/25 06:14:41;;;;;;;10.02;6.85;;;10.60;61.50;;;;;;6229146;28;20066;-78
2021/04/25 06:17:42;;;;;;;16.83;6.70;;;10.40;60.70;;;;;;6244374;28;20077;-78
2021/04/25 06:20:44;;;;;;;11.95;6.32;;;10.20;61.40;;;;;;6233388;28;20081;-78
2021/04/25 06:23:45;;;;;;;14.13;6.93;;;9.90;61.80;;;;;;6237773;28;20081;-78
2021/04/25 06:26:47;;;;;;;10.10;7.15;;;9.80;62.60;;;;;;6241727;28;20046;-79
2021/04/25 06:29:49;;;;;;;11.02;8.00;;;9.90;62.50;;;;;;6239107;28;20050;-78
2021/04/25 06:32:50;;;;;;;13.30;7.70;;;10.10;61.50;;;;;;6238261;28;20077;-78
2021/04/25 06:35:51;;;;;;;11.02;6.85;;;10.10;61.50;;;;;;6241189;28;20054;-78
2021/04/25 06:38:53;;;;;;;11.27;7.53;;;10.30;61.30;;;;;;6233830;28;20061;-78
2021/04/25 06:41:55;;;;;;;8.85;6.55;;;10.50;60.50;;;;;;6215040;28;20054;-78
2021/04/25 06:44:56;;;;;;;11.30;6.70;;;10.80;59.40;;;;;;6213846;28;20046;-79
2021/04/25 06:47:58;;;;;;;11.75;6.97;;;11.10;59.10;;;;;;6213678;28;20066;-77
2021/04/25 06:50:59;;;;;;;9.85;7.53;;;11.30;58.10;;;;;;6212071;28;20447;-78
2021/04/25 06:54:00;;;;;;;17.77;11.00;;;11.40;59.10;;;;;;6226785;28;20146;-77
2021/04/25 06:57:03;;;;;;;9.38;6.38;;;11.70;58.00;;;;;;6229694;28;20041;-77
2021/04/25 07:00:06;;;;;;;12.18;7.05;;;11.90;56.60;;;;;;6228991;28;20508;-77
2021/04/25 07:03:08;;;;;;;8.13;5.93;;;11.90;56.30;;;;;;6228619;28;20255;-77
2021/04/25 07:06:09;;;;;;;7.57;5.45;;;12.00;57.10;;;;;;6229138;28;20045;-77
2021/04/25 07:09:11;;;;;;;8.02;6.30;;;12.00;56.50;;;;;;6229313;28;20030;-77
2021/04/25 07:12:13;;;;;;;12.77;7.07;;;12.20;55.80;;;;;;6228565;28;20254;-76
2021/04/25 07:15:14;;;;;;;10.00;7.88;;;12.40;55.20;;;;;;6252457;28;20034;-77
2021/04/25 07:18:16;;;;;;;10.77;6.78;;;12.10;55.30;;;;;;6232855;28;20046;-78
2021/04/25 07:21:17;;;;;;;10.55;6.47;;;12.00;56.10;;;;;;6225989;28;20069;-76
2021/04/25 07:24:19;;;;;;;13.65;6.70;;;12.20;55.90;;;;;;6232273;28;20042;-77
2021/04/25 07:27:21;;;;;;;15.30;7.80;;;12.30;54.90;;;;;;6232722;28;20068;-77
2021/04/25 07:30:24;;;;;;;10.50;6.75;;;12.30;54.60;;;;;;6229131;28;20542;-77
2021/04/25 07:33:25;;;;;;;10.75;7.78;;;12.10;55.30;;;;;;6230241;28;20053;-77
2021/04/25 07:36:27;;;;;;;15.20;6.35;;;12.30;54.90;;;;;;6231655;28;20451;-78
2021/04/25 07:39:28;;;;;;;8.90;6.45;;;12.40;54.30;;;;;;6229884;28;20061;-78
2021/04/25 07:42:30;;;;;;;8.52;7.32;;;12.40;54.50;;;;;;6231554;28;20475;-78
2021/04/25 07:45:33;;;;;;;14.93;8.25;;;12.40;53.90;;;;;;6230269;28;20042;-78
2021/04/25 07:48:34;;;;;;;14.73;8.18;;;12.50;54.60;;;;;;6229181;28;20073;-78
2021/04/25 07:51:35;;;;;;;11.55;6.90;;;12.50;54.30;;;;;;6223289;28;20132;-76
2021/04/25 07:54:37;;;;;;;13.38;6.95;;;12.50;54.20;;;;;;6224750;28;20200;-77
2021/04/25 07:57:39;;;;;;;12.38;7.32;;;12.60;54.10;;;;;;6230412;28;20513;-77
2021/04/25 08:00:40;;;;;;;11.77;6.45;;;12.50;54.10;;;;;;6227452;28;20098;-77
2021/04/25 08:03:41;;;;;;;13.48;8.30;;;12.60;54.20;;;;;;6228464;28;20100;-77
2021/04/25 08:06:43;;;;;;;15.07;10.52;;;12.50;54.20;;;;;;6225962;28;20129;-77
2021/04/25 08:09:45;;;;;;;9.10;6.72;;;12.70;55.10;;;;;;6227342;28;20050;-77
2021/04/25 08:12:47;;;;;;;9.65;6.65;;;13.30;57.40;;;;;;6232436;28;20042;-77
2021/04/25 08:15:48;;;;;;;11.65;6.82;;;13.80;52.50;;;;;;6232657;28;20121;-78
2021/04/25 08:18:50;;;;;;;14.02;8.32;;;14.20;51.40;;;;;;6231662;28;20581;-77
2021/04/25 08:21:51;;;;;;;10.98;7.10;;;14.40;49.70;;;;;;6230401;28;20050;-77
2021/04/25 08:24:52;;;;;;;8.80;5.72;;;14.60;49.80;;;;;;6226926;28;20093;-77
2021/04/25 08:27:54;;;;;;;11.55;6.72;;;14.80;49.40;;;;;;6231037;28;20045;-77
2021/04/25 08:30:56;;;;;;;12.77;8.40;;;14.60;49.30;;;;;;6232029;28;20050;-78
2021/04/25 08:33:57;;;;;;;11.25;7.45;;;14.30;49.60;;;;;;6230820;28;20069;-77
2021/04/25 08:36:58;;;;;;;11.95;7.28;;;14.10;50.10;;;;;;6232185;28;20140;-77
2021/04/25 08:40:00;;;;;;;9.88;7.47;;;14.10;50.60;;;;;;6231696;28;20061;-78
2021/04/25 08:43:03;;;;;;;9.43;6.47;;;14.10;50.60;;;;;;6232600;28;20404;-77
2021/04/25 08:46:05;;;;;;;10.38;7.07;;;14.30;50.70;;;;;;6230568;28;20042;-77
2021/04/25 08:49:06;;;;;;;9.70;6.90;;;14.90;49.40;;;;;;6225561;28;20077;-76
2021/04/25 08:52:08;;;;;;;12.85;6.78;;;15.30;48.40;;;;;;6224882;28;20046;-77
2021/04/25 08:55:10;;;;;;;14.00;7.85;;;15.20;47.60;;;;;;6227095;28;20648;-77
2021/04/25 08:58:13;;;;;;;9.70;6.65;;;14.60;48.20;;;;;;6230054;28;20121;-77
2021/04/25 09:01:14;;;;;;;11.00;7.40;;;14.30;49.60;;;;;;6231324;28;20105;-78
2021/04/25 09:04:16;;;;;;;14.75;7.47;;;14.20;50.90;;;;;;6229331;28;20072;-77
2021/04/25 09:07:18;;;;;;;10.30;7.38;;;14.80;49.40;;;;;;6229596;28;20551;-77
2021/04/25 09:10:19;;;;;;;10.73;7.25;;;15.30;48.10;;;;;;6227267;28;20061;-78
2021/04/25 09:13:24;;;;;;;9.40;6.15;;;15.70;48.00;;;;;;6219003;28;20093;-77
2021/04/25 09:16:27;;;;;;;9.07;6.55;;;16.00;47.00;;;;;;6202264;28;20042;-77
2021/04/25 09:19:47;;;;;;;9.23;6.97;;;16.10;46.20;;;;;;6212856;28;20069;-76
2021/04/25 09:22:50;;;;;;;9.88;6.00;;;16.10;45.50;;;;;;6213345;28;20078;-76
2021/04/25 09:25:55;;;;;;;8.18;5.95;;;16.10;45.60;;;;;;6212472;28;20108;-77
2021/04/25 09:29:01;;;;;;;8.68;7.38;;;16.20;45.80;;;;;;6213036;28;20124;-76
2021/04/25 09:32:15;;;;;;;10.63;6.55;;;16.50;45.50;;;;;;6208361;28;20066;-77
2021/04/25 09:35:19;;;;;;;5.90;5.30;;;16.70;44.90;;;;;;6212884;28;20141;-77
2021/04/25 09:38:21;;;;;;;8.95;6.47;;;17.00;44.50;;;;;;6210092;28;20046;-76
2021/04/25 09:41:27;;;;;;;13.05;6.15;;;17.20;42.90;;;;;;6209546;28;20050;-76
2021/04/25 09:44:34;;;;;;;7.47;5.68;;;17.20;43.70;;;;;;6210509;28;20084;-76
2021/04/25 09:47:36;;;;;;;8.32;5.60;;;17.10;42.30;;;;;;6224710;28;20046;-77
2021/04/25 09:50:37;;;;;;;7.07;5.95;;;16.60;43.40;;;;;;6225914;28;20088;-77
2021/04/25 09:53:40;;;;;;;9.48;5.68;;;16.70;43.80;;;;;;6229791;28;20050;-77
2021/04/25 09:56:44;;;;;;;8.45;7.20;;;16.90;43.80;;;;;;6225860;28;20053;-77
2021/04/25 09:59:52;;;;;;;13.07;5.90;;;16.90;43.00;;;;;;6227018;28;20104;-77
2021/04/25 10:03:05;;;;;;;10.15;5.85;;;16.70;43.50;;;;;;6233760;28;20627;-77
2021/04/25 10:06:07;;;;;;;7.70;5.50;;;16.80;43.00;;;;;;6224472;28;20042;-77
2021/04/25 10:09:16;;;;;;;8.10;6.72;;;16.90;42.70;;;;;;6226210;28;20112;-78
2021/04/25 10:12:17;;;;;;;9.43;6.00;;;16.80;42.90;;;;;;6224726;28;20082;-77
2021/04/25 10:15:21;;;;;;;9.18;6.38;;;16.50;42.60;;;;;;6226932;28;20081;-77
2021/04/25 10:18:22;;;;;;;10.38;5.75;;;16.20;42.90;;;;;;6225880;28;20411;-77
2021/04/25 10:21:24;;;;;;;9.07;5.88;;;16.30;43.40;;;;;;6222636;28;20124;-77
2021/04/25 10:24:26;;;;;;;8.07;4.85;;;16.50;42.10;;;;;;6226166;28;20520;-77
2021/04/25 10:27:28;;;;;;;13.43;6.15;;;16.40;42.10;;;;;;6235416;28;20046;-77
2021/04/25 10:30:34;;;;;;;9.15;6.35;;;16.60;41.50;;;;;;6224833;28;20573;-77
2021/04/25 10:33:52;;;;;;;9.73;5.18;;;17.10;41.00;;;;;;6225344;28;20084;-77
2021/04/25 10:37:00;;;;;;;7.03;5.73;;;17.90;39.90;;;;;;6224795;28;20050;-77
2021/04/25 10:40:05;;;;;;;6.35;4.72;;;18.10;38.40;;;;;;6223095;28;20180;-78
2021/04/25 10:43:08;;;;;;;6.80;5.10;;;17.90;39.50;;;;;;6223161;28;20057;-78
2021/04/25 10:46:10;;;;;;;7.25;4.80;;;18.40;38.30;;;;;;6223040;28;20042;-77
2021/04/25 10:49:32;;;;;;;6.82;4.63;;;19.00;37.10;;;;;;6222310;28;20530;-77
2021/04/25 10:52:34;;;;;;;7.75;4.82;;;19.60;36.80;;;;;;6225094;28;20180;-78
2021/04/25 10:55:36;;;;;;;6.50;5.78;;;19.60;36.00;;;;;;6225334;28;20042;-78
2021/04/25 10:58:37;;;;;;;7.47;4.68;;;19.60;35.70;;;;;;6226077;28;20085;-77
2021/04/25 11:01:46;;;;;;;12.18;6.50;;;19.70;34.50;;;;;;6225308;28;20236;-78
2021/04/25 11:05:11;;;;;;;5.50;4.47;;;19.30;35.30;;;;;;6224250;28;20044;-77
2021/04/25 11:08:41;;;;;;;8.35;4.63;;;18.80;35.90;;;;;;6220664;28;20041;-77
2021/04/25 11:11:42;;;;;;;8.20;4.90;;;18.30;35.60;;;;;;6223125;28;20492;-77
2021/04/25 11:14:44;;;;;;;6.50;4.72;;;18.30;35.40;;;;;;6224213;28;20377;-77
2021/04/25 11:17:46;;;;;;;7.43;4.22;;;18.40;34.20;;;;;;6223696;28;20177;-78
2021/04/25 11:20:47;;;;;;;9.88;4.65;;;18.10;34.80;;;;;;6231522;28;20069;-78
2021/04/25 11:23:48;;;;;;;6.70;3.55;;;18.30;34.50;;;;;;6225229;28;20129;-77
2021/04/25 11:26:53;;;;;;;11.32;4.35;;;18.70;35.20;;;;;;6224189;28;20078;-77
2021/04/25 11:30:02;;;;;;;8.25;4.50;;;18.90;33.90;;;;;;6229611;28;20050;-78
2021/04/25 11:33:33;;;;;;;7.85;5.85;;;18.90;35.30;;;;;;6232503;28;20048;-78
2021/04/25 11:36:36;;;;;;;4.32;3.85;;;19.20;34.70;;;;;;6239737;28;20057;-78
2021/04/25 11:39:41;;;;;;;8.05;4.47;;;19.00;34.40;;;;;;6224160;28;20669;-78
2021/04/25 11:42:47;;;;;;;4.88;3.83;;;19.00;34.00;;;;;;6229164;28;20140;-78
2021/04/25 11:45:48;;;;;;;7.63;4.53;;;19.10;32.90;;;;;;6228601;28;20046;-78
2021/04/25 11:48:57;;;;;;;6.50;3.72;;;19.40;33.00;;;;;;6229345;28;20498;-78
2021/04/25 11:52:07;;;;;;;7.38;4.05;;;19.50;32.30;;;;;;6228131;28;20124;-78
2021/04/25 11:55:10;;;;;;;7.90;3.47;;;19.70;32.80;;;;;;6227428;28;20046;-77
2021/04/25 11:58:17;;;;;;;6.65;3.30;;;19.70;33.10;;;;;;6229287;28;20057;-77
2021/04/25 12:01:22;;;;;;;5.47;3.57;;;20.10;32.10;;;;;;6227944;28;20054;-78
2021/04/25 12:04:43;;;;;;;5.22;3.13;;;20.70;31.50;;;;;;6231228;28;20042;-78
2021/04/25 12:07:47;;;;;;;4.68;2.83;;;20.80;31.20;;;;;;6236219;28;20054;-79
2021/04/25 12:10:50;;;;;;;8.88;3.25;;;21.20;30.90;;;;;;6236409;28;20113;-78
2021/04/25 12:13:52;;;;;;;7.72;3.35;;;21.30;29.80;;;;;;6236646;28;20105;-78
2021/04/25 12:17:12;;;;;;;4.93;3.00;;;20.70;29.90;;;;;;6229133;28;20520;-77
2021/04/25 12:20:14;;;;;;;2.92;2.60;;;20.70;29.90;;;;;;6231363;28;20205;-78
2021/04/25 12:23:17;;;;;;;6.85;3.22;;;20.70;29.30;;;;;;6242794;28;20054;-78
2021/04/25 12:26:21;;;;;;;5.32;3.20;;;20.30;29.40;;;;;;6236589;28;20693;-77
2021/04/25 12:29:35;;;;;;;4.78;2.92;;;20.00;30.20;;;;;;6239380;28;20046;-79
2021/04/25 12:32:37;;;;;;;3.45;3.15;;;19.90;30.00;;;;;;6239812;28;20505;-78
2021/04/25 12:35:41;;;;;;;6.38;2.53;;;19.70;30.00;;;;;;6237116;28;20067;-78
2021/04/25 12:38:43;;;;;;;4.35;2.92;;;19.60;30.40;;;;;;6228620;28;20054;-78
2021/04/25 12:41:46;;;;;;;4.50;3.08;;;20.00;30.50;;;;;;6231370;28;20089;-78
2021/04/25 12:44:48;;;;;;;4.22;2.60;;;19.80;29.80;;;;;;6238810;28;20046;-79
2021/04/25 12:47:50;;;;;;;6.43;2.67;;;19.80;30.10;;;;;;6239308;28;20053;-78
2021/04/25 12:51:10;;;;;;;3.78;2.80;;;20.30;30.10;;;;;;6238010;28;20054;-78
2021/04/25 12:54:13;;;;;;;8.13;2.85;;;20.20;30.20;;;;;;6238909;28;20049;-78
2021/04/25 12:57:15;;;;;;;5.05;3.88;;;20.20;30.00;;;;;;6238136;28;20510;-77
2021/04/25 13:00:26;;;;;;;4.72;3.10;;;20.30;30.90;;;;;;6233082;28;20384;-78
2021/04/25 13:03:30;;;;;;;5.22;3.58;;;20.60;29.80;;;;;;6239830;28;20045;-78
2021/04/25 13:06:33;;;;;;;5.40;3.63;;;20.50;29.60;;;;;;6239129;28;20050;-78
2021/04/25 13:09:34;;;;;;;4.22;2.85;;;19.90;31.00;;;;;;6239904;28;20072;-78
2021/04/25 13:12:37;;;;;;;10.45;3.13;;;19.70;30.60;;;;;;6232474;28;20157;-78
2021/04/25 13:15:41;;;;;;;5.85;2.83;;;19.70;31.20;;;;;;6211417;28;20089;-80
2021/04/25 13:18:42;;;;;;;8.23;4.00;;;19.90;31.70;;;;;;6217471;28;20057;-78
2021/04/25 13:21:46;;;;;;;5.95;3.63;;;20.10;31.60;;;;;;6212450;28;20042;-78
2021/04/25 13:24:48;;;;;;;7.70;3.97;;;20.20;32.60;;;;;;6219035;28;20050;-78
2021/04/25 13:27:49;;;;;;;7.72;3.90;;;20.80;32.20;;;;;;6216510;28;20053;-78
2021/04/25 13:30:54;;;;;;;9.75;3.65;;;21.30;31.30;;;;;;6214197;28;20078;-79
2021/04/25 13:33:55;;;;;;;6.93;3.35;;;21.70;31.40;;;;;;6209265;28;20047;-79
2021/04/25 13:36:57;;;;;;;5.30;3.30;;;21.90;30.30;;;;;;6208220;28;20420;-79
2021/04/25 13:39:59;;;;;;;6.72;3.70;;;21.80;29.80;;;;;;6207808;28;20118;-79
2021/04/25 13:43:01;;;;;;;6.88;3.60;;;21.60;30.40;;;;;;6205989;28;20046;-79
2021/04/25 13:46:02;;;;;;;5.13;3.75;;;21.70;30.00;;;;;;6202958;28;20038;-78
2021/04/25 13:49:04;;;;;;;5.35;3.55;;;21.80;30.70;;;;;;6203539;28;20069;-78
2021/04/25 13:52:08;;;;;;;4.95;3.20;;;22.10;30.60;;;;;;6204912;28;20042;-78
2021/04/25 13:55:10;;;;;;;9.57;3.72;;;22.40;29.60;;;;;;6208024;28;20054;-78
2021/04/25 13:58:12;;;;;;;6.35;3.05;;;22.30;29.30;;;;;;6203678;28;20080;-78
2021/04/25 14:01:14;;;;;;;6.15;3.72;;;21.80;30.00;;;;;;6202065;28;20536;-78
2021/04/25 14:04:16;;;;;;;5.63;3.15;;;21.10;29.60;;;;;;6202234;28;20046;-78
2021/04/25 14:07:18;;;;;;;4.45;2.92;;;20.70;30.40;;;;;;6203068;28;20050;-78
2021/04/25 14:10:21;;;;;;;7.05;3.30;;;21.00;30.80;;;;;;6202262;28;20077;-78
2021/04/25 14:13:23;;;;;;;6.57;3.75;;;21.50;30.10;;;;;;6210597;28;20137;-78
2021/04/25 14:16:27;;;;;;;6.25;3.20;;;21.60;30.00;;;;;;6227450;28;20061;-78
2021/04/25 14:19:29;;;;;;;5.43;2.47;;;21.60;29.60;;;;;;6227953;28;20144;-78
2021/04/25 14:22:31;;;;;;;5.55;2.40;;;21.10;28.40;;;;;;6228790;28;20188;-77
2021/04/25 14:25:32;;;;;;;6.45;4.30;;;20.50;29.90;;;;;;6228706;28;20038;-77
2021/04/25 14:28:34;;;;;;;7.68;4.32;;;20.50;30.50;;;;;;6231775;28;20060;-78
2021/04/25 14:31:37;;;;;;;5.45;3.10;;;20.70;30.60;;;;;;6240513;28;20126;-78
2021/04/25 14:34:38;;;;;;;4.57;3.08;;;21.20;30.00;;;;;;6239503;28;20077;-78
2021/04/25 14:37:41;;;;;;;4.65;3.85;;;21.50;29.90;;;;;;6239272;28;20053;-79
2021/04/25 14:40:43;;;;;;;6.88;3.90;;;21.50;29.90;;;;;;6235566;28;20077;-77
2021/04/25 14:43:44;;;;;;;11.18;4.35;;;21.30;29.90;;;;;;6231433;28;20053;-77
2021/04/25 14:46:46;;;;;;;5.05;2.42;;;21.40;30.20;;;;;;6230229;28;20512;-77
2021/04/25 14:49:47;;;;;;;5.30;2.50;;;21.10;29.50;;;;;;6224111;28;20041;-77
2021/04/25 14:52:49;;;;;;;6.25;3.70;;;21.00;29.70;;;;;;6222801;28;20038;-79
2021/04/25 14:55:51;;;;;;;2.78;2.42;;;21.20;30.20;;;;;;6222948;28;20119;-77
2021/04/25 14:58:52;;;;;;;7.97;3.38;;;21.60;29.60;;;;;;6223025;28;20081;-77
2021/04/25 15:01:53;;;;;;;7.55;4.97;;;21.60;29.50;;;;;;6222319;28;20262;-78
2021/04/25 15:04:55;;;;;;;6.82;3.33;;;21.70;29.50;;;;;;6222937;28;20577;-77
2021/04/25 15:07:57;;;;;;;5.82;3.25;;;21.60;29.40;;;;;;6222340;28;20094;-77
2021/04/25 15:10:59;;;;;;;6.50;3.53;;;21.60;29.10;;;;;;6222465;28;20487;-77
2021/04/25 15:14:00;;;;;;;4.38;2.67;;;21.20;29.30;;;;;;6222383;28;20136;-77
2021/04/25 15:17:01;;;;;;;4.95;2.83;;;21.30;29.60;;;;;;6227188;28;20388;-78
2021/04/25 15:20:05;;;;;;;8.20;4.10;;;21.40;29.40;;;;;;6226757;28;20045;-78
2021/04/25 15:23:08;;;;;;;4.15;3.15;;;21.50;29.30;;;;;;6227829;28;20128;-77
2021/04/25 15:26:10;;;;;;;6.18;3.00;;;21.60;28.90;;;;;;6226872;28;20189;-77
2021/04/25 15:29:11;;;;;;;5.43;3.03;;;21.50;29.00;;;;;;6227274;28;20053;-77
2021/04/25 15:32:13;;;;;;;6.00;2.70;;;21.20;28.60;;;;;;6226956;28;20045;-77
2021/04/25 15:35:15;;;;;;;3.70;2.35;;;21.00;29.00;;;;;;6231299;28;20480;-78
2021/04/25 15:38:17;;;;;;;7.35;3.95;;;20.90;29.10;;;;;;6231429;28;20077;-77
2021/04/25 15:41:19;;;;;;;6.15;2.95;;;20.70;29.10;;;;;;6226521;28;20080;-77
2021/04/25 15:44:20;;;;;;;5.15;3.58;;;20.50;29.50;;;;;;6229131;28;20061;-79
2021/04/25 15:47:21;;;;;;;5.10;3.47;;;20.40;29.40;;;;;;6241197;28;20100;-78
2021/04/25 15:50:23;;;;;;;5.22;2.65;;;20.30;29.60;;;;;;6230545;28;20049;-77
2021/04/25 15:53:25;;;;;;;5.00;2.95;;;20.00;29.60;;;;;;6231755;28;20050;-77